sensor_id;sensor_type;location;lat;lon;timestamp;P1;durP1;ratioP1;P2;durP2;ratioP2
70067;SDS011;57425;51.616;6.680;2023-04-19T00:01:28;11.63;;;6.30;;
70067;SDS011;57425;51.616;6.680;2023-04-19T00:03:55;10.40;;;6.53;;
70067;SDS011;57425;51.616;6.680;2023-04-19T00:06:21;12.80;;;6.43;;
70067;SDS011;57425;51.616;6.680;2023-04-19T00:08:47;14.90;;;7.03;;
70067;SDS011;57425;51.616;6.680;2023-04-19T00:11:13;11.63;;;6.43;;
70067;SDS011;57425;51.616;6.680;2023-04-19T00:13:38;12.47;;;5.43;;
70067;SDS011;57425;51.616;6.680;2023-04-19T00:16:04;13.53;;;6.90;;
70067;SDS011;57425;51.616;6.680;2023-04-19T00:18:30;12.93;;;6.80;;
70067;SDS011;57425;51.616;6.680;2023-04-19T00:20:55;12.27;;;6.10;;
70067;SDS011;57425;51.616;6.680;2023-04-19T00:23:21;12.63;;;7.17;;
70067;SDS011;57425;51.616;6.680;2023-04-19T00:25:47;18.63;;;6.43;;
70067;SDS011;57425;51.616;6.680;2023-04-19T00:28:13;15.53;;;6.63;;
70067;SDS011;57425;51.616;6.680;2023-04-19T00:30:39;12.47;;;6.13;;
70067;SDS011;57425;51.616;6.680;2023-04-19T00:33:05;10.93;;;6.63;;
70067;SDS011;57425;51.616;6.680;2023-04-19T00:35:36;15.67;;;6.93;;
70067;SDS011;57425;51.616;6.680;2023-04-19T00:38:08;10.53;;;6.17;;
70067;SDS011;57425;51.616;6.680;2023-04-19T00:40:33;10.63;;;6.27;;
70067;SDS011;57425;51.616;6.680;2023-04-19T00:43:00;15.87;;;6.17;;
70067;SDS011;57425;51.616;6.680;2023-04-19T00:45:26;10.97;;;5.83;;
70067;SDS011;57425;51.616;6.680;2023-04-19T00:47:53;13.90;;;6.87;;
70067;SDS011;57425;51.616;6.680;2023-04-19T00:50:19;17.80;;;6.90;;
70067;SDS011;57425;51.616;6.680;2023-04-19T00:52:45;14.17;;;6.17;;
70067;SDS011;57425;51.616;6.680;2023-04-19T00:55:11;12.97;;;5.90;;
70067;SDS011;57425;51.616;6.680;2023-04-19T00:57:37;15.47;;;7.07;;
70067;SDS011;57425;51.616;6.680;2023-04-19T01:00:03;17.53;;;6.80;;
70067;SDS011;57425;51.616;6.680;2023-04-19T01:02:33;10.53;;;6.07;;
70067;SDS011;57425;51.616;6.680;2023-04-19T01:05:00;13.83;;;6.90;;
70067;SDS011;57425;51.616;6.680;2023-04-19T01:07:26;15.37;;;6.20;;
70067;SDS011;57425;51.616;6.680;2023-04-19T01:09:52;13.30;;;6.13;;
70067;SDS011;57425;51.616;6.680;2023-04-19T01:12:17;12.07;;;6.43;;
70067;SDS011;57425;51.616;6.680;2023-04-19T01:14:43;12.47;;;6.63;;
70067;SDS011;57425;51.616;6.680;2023-04-19T01:17:09;16.87;;;7.33;;
70067;SDS011;57425;51.616;6.680;2023-04-19T01:19:37;13.20;;;5.97;;
70067;SDS011;57425;51.616;6.680;2023-04-19T01:22:03;13.37;;;6.20;;
70067;SDS011;57425;51.616;6.680;2023-04-19T01:24:30;14.83;;;5.87;;
70067;SDS011;57425;51.616;6.680;2023-04-19T01:26:57;11.43;;;6.20;;
70067;SDS011;57425;51.616;6.680;2023-04-19T01:29:22;12.37;;;6.20;;
70067;SDS011;57425;51.616;6.680;2023-04-19T01:31:48;12.37;;;6.33;;
70067;SDS011;57425;51.616;6.680;2023-04-19T01:34:20;10.60;;;6.40;;
70067;SDS011;57425;51.616;6.680;2023-04-19T01:36:47;9.27;;;5.70;;
70067;SDS011;57425;51.616;6.680;2023-04-19T01:39:13;15.10;;;6.90;;
70067;SDS011;57425;51.616;6.680;2023-04-19T01:41:38;12.57;;;6.17;;
70067;SDS011;57425;51.616;6.680;2023-04-19T01:44:04;16.67;;;6.40;;
70067;SDS011;57425;51.616;6.680;2023-04-19T01:46:30;11.23;;;6.10;;
70067;SDS011;57425;51.616;6.680;2023-04-19T01:48:55;10.47;;;5.90;;
70067;SDS011;57425;51.616;6.680;2023-04-19T01:51:21;11.13;;;7.10;;
70067;SDS011;57425;51.616;6.680;2023-04-19T01:53:47;10.97;;;5.73;;
70067;SDS011;57425;51.616;6.680;2023-04-19T01:56:17;12.47;;;5.93;;
70067;SDS011;57425;51.616;6.680;2023-04-19T01:58:44;12.30;;;6.57;;
70067;SDS011;57425;51.616;6.680;2023-04-19T02:01:09;9.93;;;5.67;;
70067;SDS011;57425;51.616;6.680;2023-04-19T02:03:38;17.37;;;6.50;;
70067;SDS011;57425;51.616;6.680;2023-04-19T02:06:04;11.20;;;6.17;;
70067;SDS011;57425;51.616;6.680;2023-04-19T02:08:30;14.87;;;6.50;;
70067;SDS011;57425;51.616;6.680;2023-04-19T02:10:56;14.00;;;6.13;;
70067;SDS011;57425;51.616;6.680;2023-04-19T02:13:22;13.13;;;5.90;;
70067;SDS011;57425;51.616;6.680;2023-04-19T02:15:47;8.27;;;5.60;;
70067;SDS011;57425;51.616;6.680;2023-04-19T02:18:14;13.37;;;6.40;;
70067;SDS011;57425;51.616;6.680;2023-04-19T02:20:41;12.20;;;5.87;;
70067;SDS011;57425;51.616;6.680;2023-04-19T02:23:07;11.80;;;5.47;;
70067;SDS011;57425;51.616;6.680;2023-04-19T02:25:32;11.37;;;6.10;;
70067;SDS011;57425;51.616;6.680;2023-04-19T02:27:58;11.37;;;5.53;;
70067;SDS011;57425;51.616;6.680;2023-04-19T02:30:24;17.20;;;5.67;;
70067;SDS011;57425;51.616;6.680;2023-04-19T02:32:49;10.37;;;4.97;;
70067;SDS011;57425;51.616;6.680;2023-04-19T02:35:15;8.87;;;4.90;;
70067;SDS011;57425;51.616;6.680;2023-04-19T02:37:41;8.77;;;5.33;;
70067;SDS011;57425;51.616;6.680;2023-04-19T02:40:08;9.40;;;4.90;;
70067;SDS011;57425;51.616;6.680;2023-04-19T02:42:34;8.53;;;4.73;;
70067;SDS011;57425;51.616;6.680;2023-04-19T02:45:00;8.30;;;4.47;;
70067;SDS011;57425;51.616;6.680;2023-04-19T02:47:25;9.67;;;5.67;;
70067;SDS011;57425;51.616;6.680;2023-04-19T02:49:51;9.67;;;4.47;;
70067;SDS011;57425;51.616;6.680;2023-04-19T02:52:16;14.80;;;5.10;;
70067;SDS011;57425;51.616;6.680;2023-04-19T02:54:42;9.40;;;4.87;;
70067;SDS011;57425;51.616;6.680;2023-04-19T02:57:08;5.77;;;3.37;;
70067;SDS011;57425;51.616;6.680;2023-04-19T02:59:33;10.27;;;4.40;;
70067;SDS011;57425;51.616;6.680;2023-04-19T03:01:59;6.77;;;4.40;;
70067;SDS011;57425;51.616;6.680;2023-04-19T03:04:25;6.53;;;3.50;;
70067;SDS011;57425;51.616;6.680;2023-04-19T03:06:51;6.50;;;3.87;;
70067;SDS011;57425;51.616;6.680;2023-04-19T03:09:16;8.50;;;3.53;;
70067;SDS011;57425;51.616;6.680;2023-04-19T03:11:42;8.37;;;4.23;;
70067;SDS011;57425;51.616;6.680;2023-04-19T03:14:09;6.60;;;3.30;;
70067;SDS011;57425;51.616;6.680;2023-04-19T03:16:34;6.60;;;4.07;;
70067;SDS011;57425;51.616;6.680;2023-04-19T03:19:02;8.03;;;3.83;;
70067;SDS011;57425;51.616;6.680;2023-04-19T03:21:27;8.47;;;3.53;;
70067;SDS011;57425;51.616;6.680;2023-04-19T03:23:53;7.37;;;3.33;;
70067;SDS011;57425;51.616;6.680;2023-04-19T03:26:19;8.93;;;4.13;;
70067;SDS011;57425;51.616;6.680;2023-04-19T03:28:45;5.03;;;3.23;;
70067;SDS011;57425;51.616;6.680;2023-04-19T03:31:10;9.80;;;4.03;;
70067;SDS011;57425;51.616;6.680;2023-04-19T03:33:36;6.07;;;3.30;;
70067;SDS011;57425;51.616;6.680;2023-04-19T03:36:02;5.73;;;3.40;;
70067;SDS011;57425;51.616;6.680;2023-04-19T03:38:27;11.93;;;4.23;;
70067;SDS011;57425;51.616;6.680;2023-04-19T03:40:53;5.53;;;3.23;;
70067;SDS011;57425;51.616;6.680;2023-04-19T03:43:20;5.57;;;2.93;;
70067;SDS011;57425;51.616;6.680;2023-04-19T03:45:46;12.53;;;3.90;;
70067;SDS011;57425;51.616;6.680;2023-04-19T03:48:12;5.70;;;3.40;;
70067;SDS011;57425;51.616;6.680;2023-04-19T03:50:38;10.47;;;3.00;;
70067;SDS011;57425;51.616;6.680;2023-04-19T03:53:04;8.97;;;3.33;;
70067;SDS011;57425;51.616;6.680;2023-04-19T03:55:29;6.17;;;3.30;;
70067;SDS011;57425;51.616;6.680;2023-04-19T03:57:56;5.03;;;2.77;;
70067;SDS011;57425;51.616;6.680;2023-04-19T04:00:22;5.97;;;3.20;;
70067;SDS011;57425;51.616;6.680;2023-04-19T04:02:48;8.30;;;4.17;;
70067;SDS011;57425;51.616;6.680;2023-04-19T04:05:13;4.73;;;2.50;;
70067;SDS011;57425;51.616;6.680;2023-04-19T04:07:39;6.80;;;2.97;;
70067;SDS011;57425;51.616;6.680;2023-04-19T04:10:05;4.97;;;3.03;;
70067;SDS011;57425;51.616;6.680;2023-04-19T04:12:31;3.93;;;2.50;;
70067;SDS011;57425;51.616;6.680;2023-04-19T04:14:57;7.57;;;3.43;;
70067;SDS011;57425;51.616;6.680;2023-04-19T04:17:22;5.47;;;3.23;;
70067;SDS011;57425;51.616;6.680;2023-04-19T04:19:48;9.10;;;3.80;;
70067;SDS011;57425;51.616;6.680;2023-04-19T04:22:15;7.67;;;3.37;;
70067;SDS011;57425;51.616;6.680;2023-04-19T04:24:41;5.43;;;3.00;;
70067;SDS011;57425;51.616;6.680;2023-04-19T04:27:07;5.63;;;3.23;;
70067;SDS011;57425;51.616;6.680;2023-04-19T04:29:38;5.97;;;3.00;;
70067;SDS011;57425;51.616;6.680;2023-04-19T04:32:05;6.63;;;3.20;;
70067;SDS011;57425;51.616;6.680;2023-04-19T04:34:35;9.10;;;3.17;;
70067;SDS011;57425;51.616;6.680;2023-04-19T04:37:01;5.50;;;3.20;;
70067;SDS011;57425;51.616;6.680;2023-04-19T04:39:28;4.37;;;2.90;;
70067;SDS011;57425;51.616;6.680;2023-04-19T04:41:54;7.57;;;3.77;;
70067;SDS011;57425;51.616;6.680;2023-04-19T04:44:21;5.77;;;2.77;;
70067;SDS011;57425;51.616;6.680;2023-04-19T04:46:47;7.20;;;2.87;;
70067;SDS011;57425;51.616;6.680;2023-04-19T04:49:13;4.40;;;3.20;;
70067;SDS011;57425;51.616;6.680;2023-04-19T04:51:39;5.77;;;3.20;;
70067;SDS011;57425;51.616;6.680;2023-04-19T04:54:04;9.40;;;3.97;;
70067;SDS011;57425;51.616;6.680;2023-04-19T04:56:30;5.37;;;3.00;;
70067;SDS011;57425;51.616;6.680;2023-04-19T04:58:56;5.07;;;2.67;;
70067;SDS011;57425;51.616;6.680;2023-04-19T05:01:21;7.67;;;3.03;;
70067;SDS011;57425;51.616;6.680;2023-04-19T05:03:48;6.10;;;3.77;;
70067;SDS011;57425;51.616;6.680;2023-04-19T05:06:14;5.63;;;3.17;;
70067;SDS011;57425;51.616;6.680;2023-04-19T05:08:39;6.43;;;3.40;;
70067;SDS011;57425;51.616;6.680;2023-04-19T05:11:05;6.80;;;3.87;;
70067;SDS011;57425;51.616;6.680;2023-04-19T05:13:31;12.47;;;3.27;;
70067;SDS011;57425;51.616;6.680;2023-04-19T05:15:56;4.13;;;3.30;;
70067;SDS011;57425;51.616;6.680;2023-04-19T05:18:22;6.03;;;3.20;;
70067;SDS011;57425;51.616;6.680;2023-04-19T05:20:48;8.03;;;2.93;;
70067;SDS011;57425;51.616;6.680;2023-04-19T05:23:13;6.27;;;4.17;;
70067;SDS011;57425;51.616;6.680;2023-04-19T05:25:39;6.50;;;3.50;;
70067;SDS011;57425;51.616;6.680;2023-04-19T05:28:05;8.03;;;3.37;;
70067;SDS011;57425;51.616;6.680;2023-04-19T05:30:30;6.53;;;3.23;;
70067;SDS011;57425;51.616;6.680;2023-04-19T05:32:56;7.90;;;3.50;;
70067;SDS011;57425;51.616;6.680;2023-04-19T05:35:21;6.10;;;3.13;;
70067;SDS011;57425;51.616;6.680;2023-04-19T05:37:47;10.03;;;3.50;;
70067;SDS011;57425;51.616;6.680;2023-04-19T05:40:13;5.03;;;3.33;;
70067;SDS011;57425;51.616;6.680;2023-04-19T05:42:38;8.03;;;3.27;;
70067;SDS011;57425;51.616;6.680;2023-04-19T05:45:04;7.67;;;3.70;;
70067;SDS011;57425;51.616;6.680;2023-04-19T05:47:31;6.23;;;2.77;;
70067;SDS011;57425;51.616;6.680;2023-04-19T05:49:57;4.13;;;3.13;;
70067;SDS011;57425;51.616;6.680;2023-04-19T05:52:22;7.33;;;2.80;;
70067;SDS011;57425;51.616;6.680;2023-04-19T05:54:48;9.13;;;3.47;;
70067;SDS011;57425;51.616;6.680;2023-04-19T05:57:13;11.67;;;3.33;;
70067;SDS011;57425;51.616;6.680;2023-04-19T05:59:39;8.37;;;3.37;;
70067;SDS011;57425;51.616;6.680;2023-04-19T06:02:05;9.77;;;3.43;;
70067;SDS011;57425;51.616;6.680;2023-04-19T06:04:31;10.73;;;2.93;;
70067;SDS011;57425;51.616;6.680;2023-04-19T06:06:57;7.57;;;3.20;;
70067;SDS011;57425;51.616;6.680;2023-04-19T06:09:22;8.53;;;3.93;;
70067;SDS011;57425;51.616;6.680;2023-04-19T06:11:48;11.07;;;2.83;;
70067;SDS011;57425;51.616;6.680;2023-04-19T06:14:14;6.43;;;3.33;;
70067;SDS011;57425;51.616;6.680;2023-04-19T06:16:40;9.07;;;2.90;;
70067;SDS011;57425;51.616;6.680;2023-04-19T06:19:06;6.83;;;3.60;;
70067;SDS011;57425;51.616;6.680;2023-04-19T06:21:32;7.17;;;3.20;;
70067;SDS011;57425;51.616;6.680;2023-04-19T06:23:58;7.50;;;3.17;;
70067;SDS011;57425;51.616;6.680;2023-04-19T06:26:23;3.50;;;2.23;;
70067;SDS011;57425;51.616;6.680;2023-04-19T06:28:49;10.77;;;3.10;;
70067;SDS011;57425;51.616;6.680;2023-04-19T06:31:15;6.20;;;2.63;;
70067;SDS011;57425;51.616;6.680;2023-04-19T06:33:40;6.23;;;2.93;;
70067;SDS011;57425;51.616;6.680;2023-04-19T06:36:06;7.67;;;2.70;;
70067;SDS011;57425;51.616;6.680;2023-04-19T06:38:32;6.53;;;3.13;;
70067;SDS011;57425;51.616;6.680;2023-04-19T06:40:57;8.70;;;3.33;;
70067;SDS011;57425;51.616;6.680;2023-04-19T06:43:23;6.10;;;2.67;;
70067;SDS011;57425;51.616;6.680;2023-04-19T06:45:48;7.53;;;2.87;;
70067;SDS011;57425;51.616;6.680;2023-04-19T06:48:22;8.10;;;2.80;;
70067;SDS011;57425;51.616;6.680;2023-04-19T06:50:48;8.57;;;2.77;;
70067;SDS011;57425;51.616;6.680;2023-04-19T06:53:13;5.40;;;3.10;;
70067;SDS011;57425;51.616;6.680;2023-04-19T06:55:39;6.70;;;2.80;;
70067;SDS011;57425;51.616;6.680;2023-04-19T06:58:04;5.00;;;2.53;;
70067;SDS011;57425;51.616;6.680;2023-04-19T07:00:34;7.67;;;2.47;;
70067;SDS011;57425;51.616;6.680;2023-04-19T07:03:00;3.30;;;2.03;;
70067;SDS011;57425;51.616;6.680;2023-04-19T07:05:26;6.57;;;2.30;;
70067;SDS011;57425;51.616;6.680;2023-04-19T07:07:52;5.97;;;2.00;;
70067;SDS011;57425;51.616;6.680;2023-04-19T07:10:18;4.03;;;2.00;;
70067;SDS011;57425;51.616;6.680;2023-04-19T07:12:43;9.67;;;2.93;;
70067;SDS011;57425;51.616;6.680;2023-04-19T07:15:09;12.23;;;1.80;;
70067;SDS011;57425;51.616;6.680;2023-04-19T07:17:35;9.87;;;2.63;;
70067;SDS011;57425;51.616;6.680;2023-04-19T07:20:01;8.53;;;2.40;;
70067;SDS011;57425;51.616;6.680;2023-04-19T07:22:29;10.57;;;1.93;;
70067;SDS011;57425;51.616;6.680;2023-04-19T07:24:54;5.27;;;2.33;;
70067;SDS011;57425;51.616;6.680;2023-04-19T07:27:20;4.80;;;2.50;;
70067;SDS011;57425;51.616;6.680;2023-04-19T07:29:45;4.00;;;2.17;;
70067;SDS011;57425;51.616;6.680;2023-04-19T07:32:11;4.60;;;2.23;;
70067;SDS011;57425;51.616;6.680;2023-04-19T07:34:37;7.53;;;2.27;;
70067;SDS011;57425;51.616;6.680;2023-04-19T07:37:05;5.23;;;2.47;;
70067;SDS011;57425;51.616;6.680;2023-04-19T07:39:31;5.70;;;2.07;;
70067;SDS011;57425;51.616;6.680;2023-04-19T07:41:57;5.87;;;2.30;;
70067;SDS011;57425;51.616;6.680;2023-04-19T07:44:23;4.87;;;2.13;;
70067;SDS011;57425;51.616;6.680;2023-04-19T07:46:48;6.97;;;2.50;;
70067;SDS011;57425;51.616;6.680;2023-04-19T07:49:14;3.03;;;1.60;;
70067;SDS011;57425;51.616;6.680;2023-04-19T07:51:40;5.43;;;1.83;;
70067;SDS011;57425;51.616;6.680;2023-04-19T07:54:06;8.67;;;2.30;;
70067;SDS011;57425;51.616;6.680;2023-04-19T07:56:31;3.93;;;2.20;;
70067;SDS011;57425;51.616;6.680;2023-04-19T07:58:57;2.93;;;1.87;;
70067;SDS011;57425;51.616;6.680;2023-04-19T08:01:24;11.27;;;1.80;;
70067;SDS011;57425;51.616;6.680;2023-04-19T08:03:49;6.27;;;1.80;;
70067;SDS011;57425;51.616;6.680;2023-04-19T08:06:15;4.27;;;2.50;;
70067;SDS011;57425;51.616;6.680;2023-04-19T08:08:42;13.47;;;2.47;;
70067;SDS011;57425;51.616;6.680;2023-04-19T08:11:07;6.20;;;2.83;;
70067;SDS011;57425;51.616;6.680;2023-04-19T08:13:33;8.57;;;2.13;;
70067;SDS011;57425;51.616;6.680;2023-04-19T08:15:59;5.33;;;2.57;;
70067;SDS011;57425;51.616;6.680;2023-04-19T08:18:24;4.37;;;2.20;;
70067;SDS011;57425;51.616;6.680;2023-04-19T08:20:50;7.00;;;1.70;;
70067;SDS011;57425;51.616;6.680;2023-04-19T08:23:16;3.07;;;1.93;;
70067;SDS011;57425;51.616;6.680;2023-04-19T08:25:42;11.07;;;1.80;;
70067;SDS011;57425;51.616;6.680;2023-04-19T08:28:08;8.33;;;1.73;;
70067;SDS011;57425;51.616;6.680;2023-04-19T08:30:33;3.90;;;1.90;;
70067;SDS011;57425;51.616;6.680;2023-04-19T08:32:59;3.57;;;1.70;;
70067;SDS011;57425;51.616;6.680;2023-04-19T08:35:25;5.33;;;2.13;;
70067;SDS011;57425;51.616;6.680;2023-04-19T08:37:50;4.23;;;2.10;;
70067;SDS011;57425;51.616;6.680;2023-04-19T08:40:16;7.10;;;1.23;;
70067;SDS011;57425;51.616;6.680;2023-04-19T08:42:42;6.63;;;2.57;;
70067;SDS011;57425;51.616;6.680;2023-04-19T08:45:08;1.77;;;1.33;;
70067;SDS011;57425;51.616;6.680;2023-04-19T08:47:37;7.40;;;1.70;;
70067;SDS011;57425;51.616;6.680;2023-04-19T08:50:05;23.90;;;2.73;;
70067;SDS011;57425;51.616;6.680;2023-04-19T08:52:34;3.90;;;1.23;;
70067;SDS011;57425;51.616;6.680;2023-04-19T08:55:05;8.50;;;1.97;;
70067;SDS011;57425;51.616;6.680;2023-04-19T08:57:32;1.90;;;1.20;;
70067;SDS011;57425;51.616;6.680;2023-04-19T08:59:59;2.50;;;1.00;;
70067;SDS011;57425;51.616;6.680;2023-04-19T09:02:25;7.13;;;2.30;;
70067;SDS011;57425;51.616;6.680;2023-04-19T09:04:51;2.90;;;1.50;;
70067;SDS011;57425;51.616;6.680;2023-04-19T09:07:23;5.60;;;1.53;;
70067;SDS011;57425;51.616;6.680;2023-04-19T09:10:03;6.22;;;1.45;;
70067;SDS011;57425;51.616;6.680;2023-04-19T09:12:34;8.63;;;2.33;;
70067;SDS011;57425;51.616;6.680;2023-04-19T09:15:01;6.47;;;2.00;;
70067;SDS011;57425;51.616;6.680;2023-04-19T09:17:28;2.07;;;1.30;;
70067;SDS011;57425;51.616;6.680;2023-04-19T09:19:55;2.23;;;1.40;;
70067;SDS011;57425;51.616;6.680;2023-04-19T09:22:21;1.80;;;1.67;;
70067;SDS011;57425;51.616;6.680;2023-04-19T09:24:47;2.60;;;1.23;;
70067;SDS011;57425;51.616;6.680;2023-04-19T09:29:56;2.77;;;0.80;;
70067;SDS011;57425;51.616;6.680;2023-04-19T09:32:26;5.67;;;1.30;;
70067;SDS011;57425;51.616;6.680;2023-04-19T09:34:58;1.47;;;0.83;;
70067;SDS011;57425;51.616;6.680;2023-04-19T09:37:25;1.90;;;0.70;;
70067;SDS011;57425;51.616;6.680;2023-04-19T09:39:51;0.90;;;0.50;;
70067;SDS011;57425;51.616;6.680;2023-04-19T09:42:17;1.53;;;0.90;;
70067;SDS011;57425;51.616;6.680;2023-04-19T09:44:59;4.37;;;2.07;;
70067;SDS011;57425;51.616;6.680;2023-04-19T09:47:26;2.57;;;1.40;;
70067;SDS011;57425;51.616;6.680;2023-04-19T09:50:06;6.67;;;1.00;;
70067;SDS011;57425;51.616;6.680;2023-04-19T09:52:33;2.43;;;1.20;;
70067;SDS011;57425;51.616;6.680;2023-04-19T09:54:59;2.87;;;1.33;;
70067;SDS011;57425;51.616;6.680;2023-04-19T09:57:28;3.40;;;1.50;;
70067;SDS011;57425;51.616;6.680;2023-04-19T09:59:54;11.40;;;1.87;;
70067;SDS011;57425;51.616;6.680;2023-04-19T10:02:20;3.97;;;1.27;;
70067;SDS011;57425;51.616;6.680;2023-04-19T10:04:48;3.83;;;1.17;;
70067;SDS011;57425;51.616;6.680;2023-04-19T10:07:14;1.93;;;0.67;;
70067;SDS011;57425;51.616;6.680;2023-04-19T10:09:40;5.53;;;1.50;;
70067;SDS011;57425;51.616;6.680;2023-04-19T10:12:05;1.73;;;1.23;;
70067;SDS011;57425;51.616;6.680;2023-04-19T10:14:32;2.67;;;1.80;;
70067;SDS011;57425;51.616;6.680;2023-04-19T10:17:00;1.33;;;1.23;;
70067;SDS011;57425;51.616;6.680;2023-04-19T10:19:26;2.67;;;1.20;;
70067;SDS011;57425;51.616;6.680;2023-04-19T10:21:53;1.73;;;1.00;;
70067;SDS011;57425;51.616;6.680;2023-04-19T10:24:20;1.77;;;1.13;;
70067;SDS011;57425;51.616;6.680;2023-04-19T10:32:27;4.83;;;1.30;;
70067;SDS011;57425;51.616;6.680;2023-04-19T10:34:54;7.33;;;1.40;;
70067;SDS011;57425;51.616;6.680;2023-04-19T10:37:25;1.63;;;0.93;;
70067;SDS011;57425;51.616;6.680;2023-04-19T10:39:50;2.03;;;1.17;;
70067;SDS011;57425;51.616;6.680;2023-04-19T10:42:16;2.37;;;1.13;;
70067;SDS011;57425;51.616;6.680;2023-04-19T10:45:28;1.93;;;1.30;;
70067;SDS011;57425;51.616;6.680;2023-04-19T10:47:46;2.17;;;1.00;;
70067;SDS011;57425;51.616;6.680;2023-04-19T10:50:15;6.33;;;1.70;;
70067;SDS011;57425;51.616;6.680;2023-04-19T10:52:41;6.77;;;1.47;;
70067;SDS011;57425;51.616;6.680;2023-04-19T10:55:07;1.90;;;1.30;;
70067;SDS011;57425;51.616;6.680;2023-04-19T11:00:30;3.27;;;1.70;;
70067;SDS011;57425;51.616;6.680;2023-04-19T11:03:49;7.37;;;1.37;;
70067;SDS011;57425;51.616;6.680;2023-04-19T11:06:21;3.45;;;1.40;;
70067;SDS011;57425;51.616;6.680;2023-04-19T11:08:51;1.67;;;0.90;;
70067;SDS011;57425;51.616;6.680;2023-04-19T11:11:18;2.17;;;1.30;;
70067;SDS011;57425;51.616;6.680;2023-04-19T11:13:46;2.40;;;1.17;;
70067;SDS011;57425;51.616;6.680;2023-04-19T11:16:12;5.93;;;1.50;;
70067;SDS011;57425;51.616;6.680;2023-04-19T11:18:37;2.40;;;1.17;;
70067;SDS011;57425;51.616;6.680;2023-04-19T11:21:03;2.90;;;1.20;;
70067;SDS011;57425;51.616;6.680;2023-04-19T11:23:29;1.40;;;1.00;;
70067;SDS011;57425;51.616;6.680;2023-04-19T11:25:56;3.07;;;1.30;;
70067;SDS011;57425;51.616;6.680;2023-04-19T11:28:22;3.10;;;1.30;;
70067;SDS011;57425;51.616;6.680;2023-04-19T11:30:48;6.17;;;1.00;;
70067;SDS011;57425;51.616;6.680;2023-04-19T11:33:14;2.00;;;1.30;;
70067;SDS011;57425;51.616;6.680;2023-04-19T11:35:39;6.60;;;1.10;;
70067;SDS011;57425;51.616;6.680;2023-04-19T11:38:07;1.43;;;1.20;;
70067;SDS011;57425;51.616;6.680;2023-04-19T11:40:36;4.00;;;1.10;;
70067;SDS011;57425;51.616;6.680;2023-04-19T11:43:03;2.63;;;1.30;;
70067;SDS011;57425;51.616;6.680;2023-04-19T11:45:33;2.53;;;1.10;;
70067;SDS011;57425;51.616;6.680;2023-04-19T11:48:01;3.03;;;1.13;;
70067;SDS011;57425;51.616;6.680;2023-04-19T11:50:41;3.33;;;1.63;;
70067;SDS011;57425;51.616;6.680;2023-04-19T11:55:47;4.53;;;1.67;;
70067;SDS011;57425;51.616;6.680;2023-04-19T11:58:24;1.53;;;1.10;;
70067;SDS011;57425;51.616;6.680;2023-04-19T12:00:50;1.77;;;1.23;;
70067;SDS011;57425;51.616;6.680;2023-04-19T12:03:19;2.30;;;1.40;;
70067;SDS011;57425;51.616;6.680;2023-04-19T12:05:57;2.37;;;1.30;;
70067;SDS011;57425;51.616;6.680;2023-04-19T12:08:34;2.20;;;1.27;;
70067;SDS011;57425;51.616;6.680;2023-04-19T12:11:04;4.33;;;1.40;;
70067;SDS011;57425;51.616;6.680;2023-04-19T12:13:30;3.23;;;1.70;;
70067;SDS011;57425;51.616;6.680;2023-04-19T12:15:57;4.33;;;1.53;;
70067;SDS011;57425;51.616;6.680;2023-04-19T12:18:23;2.58;;;1.25;;
70067;SDS011;57425;51.616;6.680;2023-04-19T12:20:50;8.40;;;1.90;;
70067;SDS011;57425;51.616;6.680;2023-04-19T12:23:17;3.23;;;1.40;;
70067;SDS011;57425;51.616;6.680;2023-04-19T12:25:45;5.82;;;1.50;;
70067;SDS011;57425;51.616;6.680;2023-04-19T12:28:12;3.17;;;1.50;;
70067;SDS011;57425;51.616;6.680;2023-04-19T12:30:39;5.43;;;1.17;;
70067;SDS011;57425;51.616;6.680;2023-04-19T12:33:06;4.77;;;1.80;;
70067;SDS011;57425;51.616;6.680;2023-04-19T12:35:33;2.63;;;1.73;;
70067;SDS011;57425;51.616;6.680;2023-04-19T12:37:59;6.17;;;1.87;;
70067;SDS011;57425;51.616;6.680;2023-04-19T12:40:25;10.10;;;1.93;;
70067;SDS011;57425;51.616;6.680;2023-04-19T12:42:51;6.57;;;2.20;;
70067;SDS011;57425;51.616;6.680;2023-04-19T12:45:17;3.00;;;1.90;;
70067;SDS011;57425;51.616;6.680;2023-04-19T12:47:46;2.53;;;1.43;;
70067;SDS011;57425;51.616;6.680;2023-04-19T12:50:13;5.13;;;1.80;;
70067;SDS011;57425;51.616;6.680;2023-04-19T12:52:40;4.45;;;2.03;;
70067;SDS011;57425;51.616;6.680;2023-04-19T12:55:07;3.15;;;1.75;;
70067;SDS011;57425;51.616;6.680;2023-04-19T12:57:33;3.03;;;1.88;;
70067;SDS011;57425;51.616;6.680;2023-04-19T12:59:58;5.50;;;2.53;;
70067;SDS011;57425;51.616;6.680;2023-04-19T13:02:24;9.30;;;2.30;;
70067;SDS011;57425;51.616;6.680;2023-04-19T13:04:49;7.20;;;3.13;;
70067;SDS011;57425;51.616;6.680;2023-04-19T13:07:15;5.37;;;1.90;;
70067;SDS011;57425;51.616;6.680;2023-04-19T13:09:41;7.68;;;2.63;;
70067;SDS011;57425;51.616;6.680;2023-04-19T13:12:07;2.53;;;1.83;;
70067;SDS011;57425;51.616;6.680;2023-04-19T13:14:33;9.65;;;3.28;;
70067;SDS011;57425;51.616;6.680;2023-04-19T13:16:59;6.68;;;3.25;;
70067;SDS011;57425;51.616;6.680;2023-04-19T13:19:25;4.50;;;2.25;;
70067;SDS011;57425;51.616;6.680;2023-04-19T13:21:51;3.88;;;1.90;;
70067;SDS011;57425;51.616;6.680;2023-04-19T13:24:17;8.65;;;2.35;;
70067;SDS011;57425;51.616;6.680;2023-04-19T13:26:43;4.03;;;1.80;;
70067;SDS011;57425;51.616;6.680;2023-04-19T13:29:10;6.57;;;1.80;;
70067;SDS011;57425;51.616;6.680;2023-04-19T13:31:36;4.43;;;1.73;;
70067;SDS011;57425;51.616;6.680;2023-04-19T13:34:01;4.88;;;1.52;;
70067;SDS011;57425;51.616;6.680;2023-04-19T13:36:27;4.10;;;2.60;;
70067;SDS011;57425;51.616;6.680;2023-04-19T13:38:53;3.75;;;1.63;;
70067;SDS011;57425;51.616;6.680;2023-04-19T13:41:19;8.60;;;1.73;;
70067;SDS011;57425;51.616;6.680;2023-04-19T13:43:45;4.28;;;1.48;;
70067;SDS011;57425;51.616;6.680;2023-04-19T13:46:11;2.10;;;1.38;;
70067;SDS011;57425;51.616;6.680;2023-04-19T13:48:37;2.58;;;1.40;;
70067;SDS011;57425;51.616;6.680;2023-04-19T13:51:03;7.13;;;1.90;;
70067;SDS011;57425;51.616;6.680;2023-04-19T13:53:28;3.60;;;1.73;;
70067;SDS011;57425;51.616;6.680;2023-04-19T13:55:54;6.38;;;2.00;;
70067;SDS011;57425;51.616;6.680;2023-04-19T13:58:21;8.77;;;2.33;;
70067;SDS011;57425;51.616;6.680;2023-04-19T14:00:48;3.47;;;1.00;;
70067;SDS011;57425;51.616;6.680;2023-04-19T14:03:15;5.20;;;1.75;;
70067;SDS011;57425;51.616;6.680;2023-04-19T14:05:41;4.32;;;1.60;;
70067;SDS011;57425;51.616;6.680;2023-04-19T14:08:07;4.35;;;1.88;;
70067;SDS011;57425;51.616;6.680;2023-04-19T14:10:33;4.47;;;1.77;;
70067;SDS011;57425;51.616;6.680;2023-04-19T14:12:59;10.35;;;2.53;;
70067;SDS011;57425;51.616;6.680;2023-04-19T14:15:24;2.97;;;1.88;;
70067;SDS011;57425;51.616;6.680;2023-04-19T14:17:50;4.32;;;2.45;;
70067;SDS011;57425;51.616;6.680;2023-04-19T14:20:16;5.45;;;1.80;;
70067;SDS011;57425;51.616;6.680;2023-04-19T14:22:42;4.00;;;1.90;;
70067;SDS011;57425;51.616;6.680;2023-04-19T14:25:09;4.57;;;1.75;;
70067;SDS011;57425;51.616;6.680;2023-04-19T14:27:36;3.75;;;2.20;;
70067;SDS011;57425;51.616;6.680;2023-04-19T14:30:02;7.78;;;1.95;;
70067;SDS011;57425;51.616;6.680;2023-04-19T14:32:29;3.13;;;1.80;;
70067;SDS011;57425;51.616;6.680;2023-04-19T14:34:55;3.75;;;1.60;;
70067;SDS011;57425;51.616;6.680;2023-04-19T14:37:21;7.97;;;2.08;;
70067;SDS011;57425;51.616;6.680;2023-04-19T14:39:48;7.10;;;2.15;;
70067;SDS011;57425;51.616;6.680;2023-04-19T14:42:13;5.50;;;1.98;;
70067;SDS011;57425;51.616;6.680;2023-04-19T14:44:39;2.40;;;1.98;;
70067;SDS011;57425;51.616;6.680;2023-04-19T14:47:05;1.75;;;1.10;;
70067;SDS011;57425;51.616;6.680;2023-04-19T14:49:31;14.75;;;1.73;;
70067;SDS011;57425;51.616;6.680;2023-04-19T14:51:57;2.75;;;1.40;;
70067;SDS011;57425;51.616;6.680;2023-04-19T14:54:22;3.13;;;2.03;;
70067;SDS011;57425;51.616;6.680;2023-04-19T14:56:48;3.95;;;1.63;;